Terminal Aerodrome Forecast
Issued by NWS

Home | Current Version | Previous Version | Text Only | Print | Product List | Glossary On
Versions: 1 2 3 4 5 6 7 8 9 10 11 12 13 14 15 16 17 18 19 20 21 22 23 24 25 26 27 28 29 30 31 32
000
FTUS45 KGJT 060529
TAFRIL
TAF
KRIL 060529Z 0606/0706 00000KT P6SM SCT100 BKN150
     FM061600 20004KT P6SM SCT120 BKN200
     FM062200 30010G18KT P6SM VCSH SCT080 BKN120
     FM070500 VRB03KT P6SM BKN200=

USA.gov is the U.S. government's official web portal to all federal, state and local government web resources and services.